createdAt,value
2023-09-03T00:03:12.655Z,69.55
2023-09-03T00:13:37.753Z,67.01
2023-09-03T00:24:01.974Z,64.45
2023-09-03T00:34:26.277Z,62.95
2023-09-03T00:44:51.085Z,62.47
2023-09-03T00:55:15.592Z,62.57
2023-09-03T01:05:39.376Z,61.79
2023-09-03T01:16:10.205Z,61.50
2023-09-03T01:26:53.511Z,60.70
2023-09-03T01:37:17.595Z,59.65
2023-09-03T01:48:08.934Z,54.20
2023-09-03T01:58:37.416Z,56.05
2023-09-03T02:09:01.116Z,68.13
2023-09-03T02:19:26.164Z,66.34
2023-09-03T02:29:50.295Z,63.84
2023-09-03T02:40:14.599Z,61.92
2023-09-03T02:50:40.882Z,61.51
2023-09-03T03:01:16.185Z,61.05
2023-09-03T03:11:40.609Z,58.66
2023-09-03T03:22:05.346Z,53.58
2023-09-03T03:32:29.798Z,56.63
2023-09-03T03:42:54.731Z,69.29
2023-09-03T03:53:19.082Z,66.61
2023-09-03T04:03:44.891Z,63.65
2023-09-03T04:14:08.631Z,63.22
2023-09-03T04:24:33.772Z,61.73
2023-09-03T04:34:58.127Z,60.73
2023-09-03T04:45:24.482Z,59.91
2023-09-03T04:55:48.900Z,54.56
2023-09-03T05:06:17.254Z,58.74
2023-09-03T05:16:42.709Z,70.08
2023-09-03T05:27:08.090Z,67.71
2023-09-03T05:37:32.713Z,65.66
2023-09-03T05:47:56.739Z,63.47
2023-09-03T05:58:21.522Z,63.49
2023-09-03T06:08:46.741Z,63.12
2023-09-03T06:19:10.745Z,62.92
2023-09-03T06:29:40.263Z,62.44
2023-09-03T06:40:05.240Z,61.43
2023-09-03T06:50:29.600Z,62.47
2023-09-03T07:00:56.142Z,63.90
2023-09-03T07:11:21.710Z,63.77
2023-09-03T07:21:46.233Z,63.27
2023-09-03T07:32:10.801Z,62.88
2023-09-03T07:42:35.152Z,62.75
2023-09-03T07:53:02.312Z,62.21
2023-09-03T08:03:34.123Z,61.20
2023-09-03T08:14:00.383Z,59.76
2023-09-03T08:24:24.429Z,61.42
2023-09-03T08:34:48.616Z,62.03
2023-09-03T08:45:13.926Z,58.90
2023-09-03T08:55:38.380Z,63.50
2023-09-03T09:06:06.971Z,56.74
2023-09-03T09:16:31.701Z,55.32
2023-09-03T09:26:56.030Z,60.27
2023-09-03T09:37:21.365Z,59.75
2023-09-03T09:47:47.610Z,60.31
2023-09-03T09:58:13.894Z,60.57
2023-09-03T10:08:39.451Z,61.12
2023-09-03T10:19:11.758Z,60.99
2023-09-03T10:29:37.483Z,60.70
2023-09-03T10:40:18.313Z,59.70
2023-09-03T10:50:49.805Z,58.16
2023-09-03T11:01:31.712Z,57.45
2023-09-03T11:12:03.254Z,56.19
2023-09-03T11:22:28.861Z,55.94
2023-09-03T11:32:53.287Z,55.87
2023-09-03T11:43:17.775Z,55.39
2023-09-03T11:53:43.618Z,55.39
2023-09-03T12:04:07.970Z,55.63
2023-09-03T12:14:33.074Z,56.30
2023-09-03T12:25:05.732Z,55.93
2023-09-03T12:35:30.102Z,55.72
2023-09-03T12:45:54.453Z,55.68
2023-09-03T12:56:18.938Z,55.76
2023-09-03T13:06:43.198Z,55.39
2023-09-03T13:17:07.937Z,55.70
2023-09-03T13:27:32.418Z,56.15
2023-09-03T13:37:56.798Z,56.27
2023-09-03T13:48:22.608Z,56.34
2023-09-03T13:58:47.152Z,56.11
2023-09-03T14:09:13.214Z,56.47
2023-09-03T14:19:37.381Z,57.01
2023-09-03T14:30:01.712Z,57.20
2023-09-03T14:40:25.694Z,57.16
2023-09-03T14:50:50.364Z,56.44
2023-09-03T15:01:21.580Z,55.62
2023-09-03T15:11:47.407Z,54.76
2023-09-03T15:22:12.101Z,52.58
2023-09-03T15:32:36.340Z,53.08
2023-09-03T15:43:00.640Z,53.68
2023-09-03T15:53:26.964Z,53.92
2023-09-03T16:03:51.420Z,53.78
2023-09-03T16:14:15.624Z,54.14
2023-09-03T16:24:43.170Z,54.43
2023-09-03T16:35:09.279Z,55.14
2023-09-03T16:45:33.277Z,55.51
2023-09-03T16:55:58.810Z,56.17
2023-09-03T17:06:23.461Z,57.16
2023-09-03T17:16:47.892Z,58.12
2023-09-03T17:27:12.970Z,58.73
2023-09-03T17:37:38.614Z,59.49
2023-09-03T17:48:03.270Z,60.20
2023-09-03T17:58:31.853Z,60.97
2023-09-03T18:08:56.346Z,61.52
2023-09-03T18:19:20.278Z,70.91
2023-09-03T18:29:49.837Z,67.17
2023-09-03T18:40:14.437Z,62.52
2023-09-03T18:50:38.398Z,53.91
2023-09-03T19:01:06.533Z,53.14
2023-09-03T19:11:36.540Z,55.50
2023-09-03T19:22:01.142Z,57.81
2023-09-03T19:32:25.187Z,59.96
2023-09-03T19:42:53.526Z,71.06
2023-09-03T19:53:18.230Z,67.33
2023-09-03T20:03:42.710Z,63.57
2023-09-03T20:14:07.153Z,55.52
2023-09-03T20:24:31.583Z,55.28
2023-09-03T20:34:56.330Z,59.98
2023-09-03T20:45:23.972Z,68.80
2023-09-03T20:55:53.137Z,65.53
2023-09-03T21:06:17.266Z,63.09
2023-09-03T21:16:41.731Z,61.89
2023-09-03T21:27:06.013Z,60.86
2023-09-03T21:37:30.715Z,54.24
2023-09-03T21:47:54.973Z,55.40
2023-09-03T21:58:18.438Z,58.48
2023-09-03T22:08:43.110Z,60.61
2023-09-03T22:19:24.023Z,69.35
2023-09-03T22:29:49.986Z,63.78
2023-09-03T22:40:15.096Z,60.53
2023-09-03T22:50:39.171Z,56.96
2023-09-03T23:01:03.984Z,61.88
2023-09-03T23:11:28.665Z,64.98
2023-09-03T23:21:53.167Z,59.87
2023-09-03T23:32:16.787Z,59.01
2023-09-03T23:42:41.665Z,65.65
2023-09-03T23:53:06.111Z,61.40
